createdAt,value
2023-02-25T00:02:27.279Z,3.38
2023-02-25T00:05:00.462Z,3.38
2023-02-25T00:07:32.013Z,3.28
2023-02-25T00:10:03.811Z,3.38
2023-02-25T00:12:35.301Z,3.41
2023-02-25T00:15:07.119Z,3.36
2023-02-25T00:17:39.959Z,3.35
2023-02-25T00:20:13.722Z,3.42
2023-02-25T00:22:45.256Z,3.36
2023-02-25T00:25:17.237Z,3.34
2023-02-25T00:27:48.748Z,3.36
2023-02-25T00:30:20.652Z,3.34
2023-02-25T00:32:52.235Z,3.29
2023-02-25T00:35:23.820Z,3.27
2023-02-25T00:37:59.156Z,3.30
2023-02-25T00:40:35.867Z,3.21
2023-02-25T00:43:07.410Z,3.22
2023-02-25T00:45:39.811Z,2.93
2023-02-25T00:48:11.416Z,2.81
2023-02-25T00:50:42.930Z,2.57
2023-02-25T00:53:14.426Z,2.55
2023-02-25T00:55:46.231Z,2.39
2023-02-25T00:58:17.727Z,2.38
2023-02-25T01:00:51.983Z,2.38
2023-02-25T01:03:23.744Z,2.42
2023-02-25T01:05:55.805Z,2.34
2023-02-25T01:08:27.585Z,2.34
2023-02-25T01:10:59.357Z,2.37
2023-02-25T01:13:31.066Z,2.39
2023-02-25T01:16:03.081Z,2.41
2023-02-25T01:18:34.601Z,2.47
2023-02-25T01:21:06.508Z,2.53
2023-02-25T01:23:38.012Z,2.58
2023-02-25T01:26:10.071Z,2.62
2023-02-25T01:28:41.629Z,2.60
2023-02-25T01:31:13.469Z,2.66
2023-02-25T01:33:45.159Z,2.65
2023-02-25T01:36:17.004Z,2.69
2023-02-25T01:38:48.516Z,2.73
2023-02-25T01:41:20.413Z,2.70
2023-02-25T01:43:51.920Z,2.69
2023-02-25T01:46:23.726Z,2.82
2023-02-25T01:48:56.842Z,2.87
2023-02-25T01:51:28.419Z,2.88
2023-02-25T01:53:59.962Z,2.86
2023-02-25T01:56:31.890Z,2.82
2023-02-25T01:59:03.418Z,2.83
2023-02-25T02:01:35.476Z,2.83
2023-02-25T02:04:06.973Z,2.82
2023-02-25T02:06:38.524Z,2.82
2023-02-25T02:09:10.066Z,2.82
2023-02-25T02:11:41.919Z,2.82
2023-02-25T02:14:13.431Z,2.79
2023-02-25T02:16:45.224Z,2.80
2023-02-25T02:19:16.797Z,2.83
2023-02-25T02:21:48.486Z,2.86
2023-02-25T02:24:19.982Z,2.86
2023-02-25T02:26:52.384Z,2.85
2023-02-25T02:29:23.906Z,2.82
2023-02-25T02:31:55.805Z,2.81
2023-02-25T02:34:27.414Z,2.83
2023-02-25T02:36:59.289Z,2.81
2023-02-25T02:39:30.804Z,2.87
2023-02-25T02:42:02.691Z,2.83
2023-02-25T02:44:34.196Z,2.83
2023-02-25T02:47:06.993Z,2.83
2023-02-25T02:49:38.504Z,2.90
2023-02-25T02:52:15.378Z,2.88
2023-02-25T02:54:46.922Z,2.86
2023-02-25T02:57:18.736Z,2.88
2023-02-25T02:59:50.245Z,2.85
2023-02-25T03:02:22.901Z,2.82
2023-02-25T03:04:54.404Z,2.82
2023-02-25T03:07:25.917Z,2.87
2023-02-25T03:09:57.450Z,2.90
2023-02-25T03:12:30.153Z,2.85
2023-02-25T03:15:01.657Z,2.78
2023-02-25T03:17:33.404Z,2.73
2023-02-25T03:20:05.037Z,2.69
2023-02-25T03:22:36.896Z,2.69
2023-02-25T03:25:08.399Z,2.67
2023-02-25T03:27:40.199Z,2.66
2023-02-25T03:30:13.026Z,2.70
2023-02-25T03:32:44.985Z,2.63
2023-02-25T03:35:16.527Z,2.67
2023-02-25T03:37:48.541Z,2.68
2023-02-25T03:40:20.085Z,2.69
2023-02-25T03:42:51.909Z,2.65
2023-02-25T03:45:23.421Z,2.62
2023-02-25T03:47:55.280Z,2.58
2023-02-25T03:50:26.836Z,2.63
2023-02-25T03:52:59.037Z,2.60
2023-02-25T03:55:30.524Z,2.64
2023-02-25T03:58:03.103Z,2.63
2023-02-25T04:00:34.595Z,2.66
2023-02-25T04:03:06.412Z,2.71
2023-02-25T04:05:37.888Z,2.58
2023-02-25T04:08:16.178Z,2.58
2023-02-25T04:10:48.260Z,2.58
2023-02-25T04:13:20.844Z,2.50
2023-02-25T04:15:52.575Z,2.49
2023-02-25T04:18:24.904Z,2.48
2023-02-25T04:20:56.761Z,2.48
2023-02-25T04:23:28.275Z,2.37
2023-02-25T04:25:59.794Z,2.38
2023-02-25T04:28:31.292Z,2.38
2023-02-25T04:31:03.289Z,2.30
2023-02-25T04:33:34.827Z,2.28
2023-02-25T04:36:06.706Z,2.26
2023-02-25T04:38:38.218Z,2.19
2023-02-25T04:41:10.124Z,2.24
2023-02-25T04:43:41.616Z,2.17
2023-02-25T04:46:13.571Z,2.20
2023-02-25T04:48:45.085Z,2.22
2023-02-25T04:51:16.925Z,2.13
2023-02-25T04:53:48.422Z,2.15
2023-02-25T04:56:20.358Z,2.12
2023-02-25T04:58:51.883Z,2.16
2023-02-25T05:01:23.440Z,2.18
2023-02-25T05:03:56.940Z,2.13
2023-02-25T05:06:28.632Z,2.14
2023-02-25T05:09:00.125Z,2.17
2023-02-25T05:11:31.806Z,2.14
2023-02-25T05:14:03.335Z,2.13
2023-02-25T05:16:35.233Z,2.14
2023-02-25T05:19:07.096Z,2.14
2023-02-25T05:21:38.922Z,2.17
2023-02-25T05:24:10.430Z,2.11
2023-02-25T05:26:42.205Z,2.12
2023-02-25T05:29:13.711Z,0.41
2023-02-25T05:31:45.736Z,2.11
2023-02-25T05:34:17.558Z,2.10
2023-02-25T05:36:49.492Z,2.06
2023-02-25T05:39:20.998Z,2.02
2023-02-25T05:41:52.836Z,2.01
2023-02-25T05:44:25.014Z,1.97
2023-02-25T05:46:57.063Z,1.87
2023-02-25T05:49:28.569Z,1.76
2023-02-25T05:52:00.237Z,1.82
2023-02-25T05:54:31.733Z,1.77
2023-02-25T05:57:03.587Z,1.77
2023-02-25T05:59:36.772Z,1.77
2023-02-25T06:02:08.605Z,1.78
2023-02-25T06:04:40.158Z,1.76
2023-02-25T06:07:11.832Z,1.75
2023-02-25T06:09:43.859Z,1.63
2023-02-25T06:12:15.634Z,1.64
2023-02-25T06:14:47.365Z,1.62
2023-02-25T06:17:19.318Z,1.59
2023-02-25T06:19:51.329Z,1.51
2023-02-25T06:22:23.132Z,1.49
2023-02-25T06:24:54.620Z,1.53
2023-02-25T06:27:26.135Z,1.51
2023-02-25T06:30:00.233Z,1.45
2023-02-25T06:32:32.176Z,1.45
2023-02-25T06:35:03.749Z,1.42
2023-02-25T06:37:35.631Z,1.44
2023-02-25T06:40:07.859Z,1.46
2023-02-25T06:42:39.723Z,1.48
2023-02-25T06:45:11.228Z,1.40
2023-02-25T06:47:43.248Z,1.49
2023-02-25T06:50:14.792Z,1.37
2023-02-25T06:52:46.585Z,1.44
2023-02-25T06:55:18.117Z,1.49
2023-02-25T06:57:49.992Z,0.39
2023-02-25T07:00:21.495Z,1.48
2023-02-25T07:02:53.345Z,1.52
2023-02-25T07:05:24.924Z,1.60
2023-02-25T07:07:56.858Z,1.52
2023-02-25T07:10:28.356Z,1.64
2023-02-25T07:13:00.365Z,1.64
2023-02-25T07:15:31.886Z,1.69
2023-02-25T07:18:03.820Z,1.79
2023-02-25T07:20:35.327Z,1.95
2023-02-25T07:23:07.164Z,1.97
2023-02-25T07:25:38.682Z,2.10
2023-02-25T07:28:10.589Z,2.09
2023-02-25T07:30:42.195Z,2.23
2023-02-25T07:33:13.804Z,2.32
2023-02-25T07:35:45.389Z,2.19
2023-02-25T07:38:17.383Z,2.31
2023-02-25T07:40:48.881Z,2.37
2023-02-25T07:43:20.399Z,2.28
2023-02-25T07:45:52.015Z,2.29
2023-02-25T07:48:23.592Z,2.40
2023-02-25T07:50:55.379Z,2.31
2023-02-25T07:53:26.950Z,2.27
2023-02-25T07:55:58.446Z,2.32
2023-02-25T07:58:30.039Z,2.31
2023-02-25T08:01:03.364Z,2.27
2023-02-25T08:03:35.298Z,2.31
2023-02-25T08:06:08.196Z,2.23
2023-02-25T08:08:40.104Z,2.39
2023-02-25T08:11:11.610Z,2.18
2023-02-25T08:13:43.556Z,2.30
2023-02-25T08:16:15.186Z,2.27
2023-02-25T08:18:47.363Z,2.30
2023-02-25T08:21:18.917Z,2.38
2023-02-25T08:23:50.719Z,2.36
2023-02-25T08:26:22.623Z,2.32
2023-02-25T08:28:54.529Z,2.40
2023-02-25T08:31:26.583Z,2.26
2023-02-25T08:33:59.733Z,2.31
2023-02-25T08:36:31.312Z,2.41
2023-02-25T08:39:02.917Z,2.19
2023-02-25T08:41:34.433Z,2.32
2023-02-25T08:44:06.421Z,2.38
2023-02-25T08:46:38.025Z,2.31
2023-02-25T08:49:09.762Z,2.38
2023-02-25T08:51:41.297Z,2.28
2023-02-25T08:54:12.872Z,2.53
2023-02-25T08:56:44.584Z,2.53
2023-02-25T08:59:17.207Z,2.48
2023-02-25T09:01:49.049Z,2.47
2023-02-25T09:04:21.565Z,2.51
2023-02-25T09:06:54.183Z,2.48
2023-02-25T09:09:25.774Z,2.40
2023-02-25T09:11:57.336Z,2.40
2023-02-25T09:14:29.099Z,2.22
2023-02-25T09:17:00.595Z,2.56
2023-02-25T09:19:32.387Z,2.46
2023-02-25T09:22:04.152Z,2.38
2023-02-25T09:24:35.736Z,2.41
2023-02-25T09:27:08.170Z,2.40
2023-02-25T09:29:40.099Z,2.68
2023-02-25T09:32:11.808Z,2.57
2023-02-25T09:34:43.710Z,2.67
2023-02-25T09:37:15.220Z,2.61
2023-02-25T09:39:47.098Z,2.91
2023-02-25T09:42:18.619Z,3.33
2023-02-25T09:44:50.593Z,3.60
2023-02-25T09:47:22.177Z,3.47
2023-02-25T09:49:53.702Z,3.36
2023-02-25T09:52:26.559Z,3.74
2023-02-25T09:54:59.481Z,3.86
2023-02-25T09:57:32.057Z,3.54
2023-02-25T10:00:12.984Z,3.53
2023-02-25T10:02:44.608Z,3.31
2023-02-25T10:05:16.737Z,3.44
2023-02-25T10:07:48.278Z,3.34
2023-02-25T10:10:19.868Z,3.20
2023-02-25T10:12:51.546Z,3.38
2023-02-25T10:15:23.167Z,3.41
2023-02-25T10:17:54.682Z,3.20
2023-02-25T10:20:26.275Z,2.91
2023-02-25T10:22:57.818Z,2.62
2023-02-25T10:25:30.241Z,2.56
2023-02-25T10:28:01.854Z,2.20
2023-02-25T10:30:33.470Z,1.46
2023-02-25T10:33:05.746Z,1.25
2023-02-25T10:35:37.550Z,1.13
2023-02-25T10:38:09.122Z,1.13
2023-02-25T10:40:41.192Z,1.23
2023-02-25T10:43:12.695Z,0.92
2023-02-25T10:45:44.449Z,0.94
2023-02-25T10:48:16.227Z,0.88
2023-02-25T10:50:48.052Z,1.24
2023-02-25T10:53:19.610Z,1.60
2023-02-25T10:55:55.147Z,1.77
2023-02-25T10:58:27.071Z,2.07
2023-02-25T11:00:59.071Z,2.35
2023-02-25T11:03:30.590Z,2.47
2023-02-25T11:06:02.300Z,2.95
2023-02-25T11:08:33.810Z,3.19
2023-02-25T11:11:05.607Z,3.41
2023-02-25T11:13:37.367Z,3.80
2023-02-25T11:16:09.303Z,3.96
2023-02-25T11:18:40.851Z,3.65
2023-02-25T11:21:13.750Z,3.40
2023-02-25T11:23:45.367Z,2.66
2023-02-25T11:26:17.035Z,2.77
2023-02-25T11:28:48.794Z,3.06
2023-02-25T11:31:20.710Z,3.05
2023-02-25T11:33:52.523Z,3.10
2023-02-25T11:36:24.354Z,3.25
2023-02-25T11:38:56.162Z,3.65
2023-02-25T11:41:27.695Z,3.54
2023-02-25T11:44:01.761Z,4.00
2023-02-25T11:46:35.133Z,3.81
2023-02-25T11:49:06.666Z,4.00
2023-02-25T11:51:38.670Z,3.73
2023-02-25T11:54:10.501Z,3.70
2023-02-25T11:56:43.841Z,3.60
2023-02-25T11:59:15.740Z,3.38
2023-02-25T12:01:47.321Z,2.79
2023-02-25T12:04:19.393Z,2.94
2023-02-25T12:06:50.940Z,2.87
2023-02-25T12:09:23.005Z,2.75
2023-02-25T12:11:54.533Z,3.03
2023-02-25T12:14:26.080Z,2.78
2023-02-25T12:16:58.705Z,2.33
2023-02-25T12:19:30.246Z,1.97
2023-02-25T12:22:01.765Z,1.74
2023-02-25T12:24:33.653Z,1.67
2023-02-25T12:27:05.178Z,1.94
2023-02-25T12:29:36.959Z,2.38
2023-02-25T12:32:08.642Z,2.89
2023-02-25T12:34:40.551Z,3.21
2023-02-25T12:37:12.300Z,2.91
2023-02-25T12:39:44.594Z,3.03
2023-02-25T12:42:16.107Z,3.05
2023-02-25T12:44:47.965Z,2.58
2023-02-25T12:47:19.502Z,2.24
2023-02-25T12:49:51.368Z,1.85
2023-02-25T12:52:23.230Z,1.72
2023-02-25T12:54:54.762Z,1.87
2023-02-25T12:57:26.272Z,1.78
2023-02-25T12:59:58.255Z,2.13
2023-02-25T13:02:29.797Z,2.00
2023-02-25T13:05:01.623Z,2.43
2023-02-25T13:07:33.171Z,2.78
2023-02-25T13:10:05.042Z,2.67
2023-02-25T13:12:36.613Z,2.78
2023-02-25T13:15:08.513Z,2.61
2023-02-25T13:17:40.039Z,2.65
2023-02-25T13:20:11.837Z,2.69
2023-02-25T13:22:43.339Z,2.62
2023-02-25T13:25:19.906Z,2.45
2023-02-25T13:27:53.580Z,2.28
2023-02-25T13:30:25.495Z,2.48
2023-02-25T13:32:57.044Z,2.28
2023-02-25T13:35:29.200Z,2.51
2023-02-25T13:38:02.059Z,1.74
2023-02-25T13:40:33.915Z,2.55
2023-02-25T13:43:05.403Z,2.80
2023-02-25T13:45:37.177Z,2.80
2023-02-25T13:48:08.711Z,2.46
2023-02-25T13:50:40.414Z,2.57
2023-02-25T13:53:11.910Z,2.46
2023-02-25T13:55:43.455Z,2.43
2023-02-25T13:58:15.002Z,2.12
2023-02-25T14:00:46.878Z,2.10
2023-02-25T14:03:18.397Z,1.77
2023-02-25T14:05:50.157Z,1.68
2023-02-25T14:08:21.675Z,1.95
2023-02-25T14:10:53.545Z,2.07
2023-02-25T14:13:25.092Z,2.25
2023-02-25T14:15:57.019Z,2.07
2023-02-25T14:18:29.403Z,1.79
2023-02-25T14:21:01.182Z,1.87
2023-02-25T14:23:32.736Z,1.93
2023-02-25T14:26:04.611Z,2.13
2023-02-25T14:28:36.168Z,1.95
2023-02-25T14:31:08.058Z,1.97
2023-02-25T14:33:39.635Z,2.01
2023-02-25T14:36:13.740Z,1.85
2023-02-25T14:38:45.257Z,-0.13
2023-02-25T14:41:17.083Z,1.67
2023-02-25T14:43:49.201Z,1.96
2023-02-25T14:46:20.812Z,2.15
2023-02-25T14:48:52.343Z,2.12
2023-02-25T14:51:24.243Z,1.95
2023-02-25T14:53:56.007Z,1.81
2023-02-25T14:56:27.685Z,1.83
2023-02-25T14:58:59.192Z,1.85
2023-02-25T15:01:30.753Z,1.84
2023-02-25T15:04:02.267Z,1.95
2023-02-25T15:06:34.083Z,2.07
2023-02-25T15:09:05.619Z,1.99
2023-02-25T15:11:37.646Z,1.98
2023-02-25T15:14:09.374Z,2.05
2023-02-25T15:16:41.922Z,1.87
2023-02-25T15:19:13.438Z,1.96
2023-02-25T15:21:46.846Z,1.91
2023-02-25T15:24:18.374Z,1.90
2023-02-25T15:26:50.284Z,2.02
2023-02-25T15:29:21.816Z,1.92
2023-02-25T15:31:53.821Z,1.84
2023-02-25T15:34:25.377Z,1.74
2023-02-25T15:36:57.212Z,1.76
2023-02-25T15:39:28.730Z,1.67
2023-02-25T15:42:00.653Z,1.63
2023-02-25T15:44:32.176Z,1.63
2023-02-25T15:47:04.057Z,1.77
2023-02-25T15:49:35.615Z,1.83
2023-02-25T15:52:07.368Z,1.76
2023-02-25T15:54:38.883Z,1.75
2023-02-25T15:57:10.778Z,1.65
2023-02-25T15:59:42.341Z,1.67
2023-02-25T16:02:14.224Z,1.49
2023-02-25T16:04:45.842Z,1.51
2023-02-25T16:07:17.732Z,1.53
2023-02-25T16:09:50.689Z,1.23
2023-02-25T16:12:22.609Z,0.91
2023-02-25T16:14:54.115Z,0.87
2023-02-25T16:17:25.628Z,0.68
2023-02-25T16:19:57.126Z,0.69
2023-02-25T16:22:28.707Z,0.65
2023-02-25T16:25:01.760Z,0.56
2023-02-25T16:27:33.627Z,0.63
2023-02-25T16:30:05.166Z,0.59
2023-02-25T16:32:37.145Z,0.57
2023-02-25T16:35:08.716Z,0.46
2023-02-25T16:37:40.597Z,0.44
2023-02-25T16:40:12.208Z,0.47
2023-02-25T16:42:43.925Z,0.35
2023-02-25T16:45:15.434Z,0.42
2023-02-25T16:47:47.316Z,0.36
2023-02-25T16:50:18.850Z,0.36
2023-02-25T16:52:50.911Z,0.34
2023-02-25T16:55:22.900Z,0.36
2023-02-25T16:57:54.731Z,0.36
2023-02-25T17:00:26.290Z,0.35
2023-02-25T17:02:58.120Z,0.31
2023-02-25T17:05:29.659Z,0.32
2023-02-25T17:08:02.355Z,0.34
2023-02-25T17:10:33.861Z,0.31
2023-02-25T17:13:05.787Z,0.32
2023-02-25T17:15:37.898Z,0.33
2023-02-25T17:18:09.556Z,0.38
2023-02-25T17:20:41.486Z,0.32
2023-02-25T17:23:13.051Z,0.36
2023-02-25T17:25:44.944Z,0.28
2023-02-25T17:28:16.461Z,0.32
2023-02-25T17:30:48.358Z,0.30
2023-02-25T17:33:21.680Z,0.40
2023-02-25T17:35:53.749Z,0.30
2023-02-25T17:38:25.489Z,0.32
2023-02-25T17:40:57.479Z,0.35
2023-02-25T17:43:28.991Z,0.26
2023-02-25T17:46:01.497Z,0.33
2023-02-25T17:48:33.116Z,0.28
2023-02-25T17:51:06.058Z,0.26
2023-02-25T17:53:38.304Z,0.31
2023-02-25T17:56:09.838Z,0.20
2023-02-25T17:58:41.341Z,0.24
2023-02-25T18:01:13.204Z,0.20
2023-02-25T18:03:44.900Z,0.20
2023-02-25T18:06:16.766Z,0.21
2023-02-25T18:08:48.271Z,0.19
2023-02-25T18:11:20.141Z,0.23
2023-02-25T18:13:51.652Z,0.28
2023-02-25T18:16:23.482Z,0.24
2023-02-25T18:18:55.394Z,0.26
2023-02-25T18:21:26.973Z,0.28
2023-02-25T18:23:58.547Z,0.28
2023-02-25T18:26:30.339Z,0.21
2023-02-25T18:29:01.832Z,0.17
2023-02-25T18:31:34.995Z,0.11
2023-02-25T18:34:06.491Z,0.09
2023-02-25T18:36:38.672Z,0.07
2023-02-25T18:39:10.190Z,0.06
2023-02-25T18:41:42.063Z,-0.01
2023-02-25T18:44:13.631Z,0.08
2023-02-25T18:46:45.621Z,0.06
2023-02-25T18:49:17.231Z,0.10
2023-02-25T18:51:49.078Z,0.01
2023-02-25T18:54:20.634Z,0.01
2023-02-25T18:56:52.613Z,0.08
2023-02-25T18:59:24.141Z,0.03
2023-02-25T19:01:56.010Z,0.11
2023-02-25T19:04:27.585Z,-0.02
2023-02-25T19:06:59.289Z,0.02
2023-02-25T19:09:30.816Z,0.07
2023-02-25T19:12:02.655Z,0.08
2023-02-25T19:14:34.230Z,0.05
2023-02-25T19:17:06.629Z,0.03
2023-02-25T19:19:38.158Z,-0.09
2023-02-25T19:22:10.059Z,-0.05
2023-02-25T19:24:41.585Z,0.02
2023-02-25T19:27:14.102Z,0.05
2023-02-25T19:29:45.736Z,-0.03
2023-02-25T19:32:17.853Z,0.06
2023-02-25T19:34:49.696Z,0.02
2023-02-25T19:37:21.644Z,0.07
2023-02-25T19:39:53.180Z,0.07
2023-02-25T19:42:24.755Z,0.01
2023-02-25T19:44:56.265Z,0.05
2023-02-25T19:47:27.775Z,0.05
2023-02-25T19:49:59.291Z,0.06
2023-02-25T19:52:30.832Z,0.05
2023-02-25T19:55:02.404Z,0.02
2023-02-25T19:57:34.360Z,-0.04
2023-02-25T20:00:07.346Z,0.05
2023-02-25T20:02:40.474Z,0.03
2023-02-25T20:05:12.039Z,0.09
2023-02-25T20:07:44.353Z,-0.01
2023-02-25T20:10:15.870Z,0.02
2023-02-25T20:12:47.425Z,0.14
2023-02-25T20:15:19.040Z,0.17
2023-02-25T20:17:55.099Z,0.06
2023-02-25T20:20:26.696Z,-0.02
2023-02-25T20:22:58.229Z,0.02
2023-02-25T20:25:29.722Z,-0.05
2023-02-25T20:28:01.728Z,-0.01
2023-02-25T20:30:33.409Z,0.12
2023-02-25T20:33:04.941Z,0.07
2023-02-25T20:35:36.465Z,0.10
2023-02-25T20:38:08.273Z,-0.01
2023-02-25T20:40:39.974Z,-0.03
2023-02-25T20:43:11.800Z,-0.16
2023-02-25T20:45:43.824Z,-0.11
2023-02-25T20:48:15.368Z,-0.05
2023-02-25T20:50:46.937Z,-0.10
2023-02-25T20:53:18.470Z,-0.16
2023-02-25T20:55:49.973Z,-0.20
2023-02-25T20:58:21.786Z,-0.21
2023-02-25T21:00:53.352Z,-0.17
2023-02-25T21:03:24.911Z,-0.20
2023-02-25T21:05:56.427Z,-1.16
2023-02-25T21:08:27.980Z,-0.30
2023-02-25T21:10:59.510Z,-0.31
2023-02-25T21:13:31.029Z,-0.31
2023-02-25T21:16:02.576Z,-1.30
2023-02-25T21:18:34.467Z,-0.29
2023-02-25T21:21:06.030Z,-0.30
2023-02-25T21:23:37.825Z,-0.25
2023-02-25T21:26:09.351Z,-0.28
2023-02-25T21:28:46.266Z,-0.32
2023-02-25T21:31:18.319Z,-0.31
2023-02-25T21:33:50.009Z,-0.37
2023-02-25T21:36:21.598Z,-0.41
2023-02-25T21:38:53.377Z,-0.42
2023-02-25T21:41:24.895Z,-0.41
2023-02-25T21:43:57.504Z,-0.31
2023-02-25T21:46:29.088Z,-0.37
2023-02-25T21:49:00.984Z,-0.45
2023-02-25T21:51:32.541Z,-0.42
2023-02-25T21:54:05.863Z,-0.38
2023-02-25T21:56:37.557Z,-0.44
2023-02-25T21:59:09.827Z,-0.46
2023-02-25T22:01:41.423Z,-0.36
2023-02-25T22:04:13.357Z,-0.51
2023-02-25T22:06:46.962Z,-0.47
2023-02-25T22:09:20.116Z,-0.45
2023-02-25T22:11:51.754Z,-0.54
2023-02-25T22:14:24.670Z,-0.57
2023-02-25T22:16:56.154Z,-0.56
2023-02-25T22:19:27.677Z,-0.53
2023-02-25T22:21:59.698Z,-0.53
2023-02-25T22:24:31.221Z,-0.58
2023-02-25T22:27:03.021Z,-0.57
2023-02-25T22:29:34.503Z,-0.64
2023-02-25T22:32:06.142Z,-0.68
2023-02-25T22:34:37.652Z,-0.61
2023-02-25T22:37:09.642Z,-0.56
2023-02-25T22:39:41.201Z,-0.56
2023-02-25T22:42:12.778Z,-0.61
2023-02-25T22:44:44.394Z,-0.56
2023-02-25T22:47:16.329Z,-0.55
2023-02-25T22:49:47.869Z,-0.56
2023-02-25T22:52:19.790Z,-0.64
2023-02-25T22:54:51.271Z,-0.57
2023-02-25T22:57:22.970Z,-0.54
2023-02-25T22:59:54.487Z,-0.46
2023-02-25T23:02:26.035Z,-0.48
2023-02-25T23:04:57.569Z,-0.56
2023-02-25T23:07:29.063Z,-0.51
2023-02-25T23:10:00.548Z,-0.48
2023-02-25T23:12:32.479Z,-0.58
2023-02-25T23:15:04.132Z,-0.48
2023-02-25T23:17:36.037Z,-0.52
2023-02-25T23:20:09.950Z,-0.52
2023-02-25T23:22:41.682Z,-0.43
2023-02-25T23:25:13.195Z,-0.44
2023-02-25T23:27:45.044Z,-0.51
2023-02-25T23:30:16.595Z,-0.55
2023-02-25T23:32:48.460Z,-0.60
2023-02-25T23:35:19.950Z,-0.56
2023-02-25T23:37:51.720Z,-0.59
2023-02-25T23:40:23.248Z,-0.58
2023-02-25T23:42:55.311Z,-0.59
2023-02-25T23:45:27.485Z,-0.57
2023-02-25T23:47:59.373Z,-0.57
2023-02-25T23:50:30.902Z,-0.58
2023-02-25T23:53:02.803Z,-0.57
2023-02-25T23:55:34.312Z,-0.56
2023-02-25T23:58:05.880Z,-0.62
